Time;durP1;ratioP1;P1;durP2;ratioP2;P2;SDS_P1;SDS_P2;PMS_P1;PMS_P2;Temp;Humidity;BMP_temperature;BMP_pressure;BME280_temperature;BME280_humidity;BME280_pressure;Samples;Min_cycle;Max_cycle;Signal;HPM_P1;HPM_P2
2022/04/29 00:03:27;;;;;;;7.43;5.03;;;4.50;1.00;;;;;;8214997;28;20216;-68
2022/04/29 00:07:28;;;;;;;8.33;5.43;;;4.50;93.80;;;;;;8220221;28;20275;-69
2022/04/29 00:11:29;;;;;;;7.97;5.07;;;4.60;99.90;;;;;;8215163;28;20382;-67
2022/04/29 00:15:31;;;;;;;7.73;5.10;;;4.60;1.00;;;;;;8216012;28;20191;-68
2022/04/29 00:19:32;;;;;;;10.37;5.83;;;4.60;1.00;;;;;;8229470;28;20193;-68
2022/04/29 00:23:33;;;;;;;8.60;5.87;;;4.70;1.00;;;;;;8219584;28;20214;-69
2022/04/29 00:27:35;;;;;;;6.73;5.20;;;4.70;99.90;;;;;;8231803;28;20358;-69
2022/04/29 00:31:35;;;;;;;9.47;6.00;;;4.60;1.00;;;;;;8216606;28;20284;-75
2022/04/29 00:35:36;;;;;;;7.83;5.67;;;4.60;99.90;;;;;;8237001;28;20451;-69
2022/04/29 00:39:38;;;;;;;7.37;4.90;;;4.60;99.90;;;;;;8223979;28;20293;-68
2022/04/29 00:43:38;;;;;;;8.90;6.13;;;4.60;1.00;;;;;;8221217;28;20226;-68
2022/04/29 00:47:39;;;;;;;9.53;6.67;;;4.60;1.00;;;;;;8237145;28;20186;-69
2022/04/29 00:51:42;;;;;;;8.30;6.33;;;4.60;1.00;;;;;;8226853;28;20196;-69
2022/04/29 00:55:45;;;;;;;12.47;7.03;;;4.60;99.90;;;;;;8224041;28;20193;-69
2022/04/29 00:59:55;;;;;;;9.10;6.70;;;4.60;99.90;;;;;;8235431;28;20198;-68
2022/04/29 01:03:58;;;;;;;9.20;6.93;;;4.50;1.00;;;;;;8224677;28;20212;-69
2022/04/29 01:07:59;;;;;;;7.67;5.50;;;4.60;1.00;;;;;;8216710;28;20208;-70
2022/04/29 01:12:00;;;;;;;6.93;5.53;;;4.60;50.40;;;;;;8233213;28;20199;-69
2022/04/29 01:16:01;;;;;;;9.63;6.30;;;4.60;1.00;;;;;;8234904;28;20203;-69
2022/04/29 01:20:08;;;;;;;10.57;7.00;;;4.60;1.00;;;;;;8238513;28;20195;-69
2022/04/29 01:24:08;;;;;;;9.23;6.40;;;4.60;99.90;;;;;;8234980;28;20225;-68
2022/04/29 01:28:09;;;;;;;8.63;6.20;;;4.60;99.90;;;;;;8235103;28;20252;-69
2022/04/29 01:32:11;;;;;;;9.73;7.13;;;4.60;1.00;;;;;;8223363;28;20199;-68
2022/04/29 01:36:12;;;;;;;9.60;5.73;;;4.60;1.00;;;;;;8214612;28;20188;-69
2022/04/29 01:40:13;;;;;;;11.13;7.13;;;4.60;99.90;;;;;;8235313;28;20223;-69
2022/04/29 01:44:14;;;;;;;11.37;7.87;;;4.60;99.90;;;;;;8233116;28;20312;-72
2022/04/29 01:48:15;;;;;;;12.77;9.17;;;4.60;99.90;;;;;;8222878;28;20193;-69
2022/04/29 01:52:16;;;;;;;12.90;9.30;;;4.50;24.70;;;;;;8234915;28;20252;-69
2022/04/29 01:56:16;;;;;;;15.80;10.57;;;4.50;19.80;;;;;;8222859;28;20195;-69
2022/04/29 02:00:17;;;;;;;17.73;11.10;;;4.50;99.90;;;;;;8223446;28;20194;-69
2022/04/29 02:04:18;;;;;;;15.97;9.93;;;4.50;99.90;;;;;;8217644;28;20216;-69
2022/04/29 02:08:19;;;;;;;14.80;9.20;;;4.50;1.00;;;;;;8220893;28;20233;-69
2022/04/29 02:12:20;;;;;;;15.13;8.73;;;4.50;1.00;;;;;;8215937;28;20289;-69
2022/04/29 02:16:20;;;;;;;15.07;9.87;;;4.50;1.00;;;;;;8220206;28;20198;-69
2022/04/29 02:20:21;;;;;;;12.27;8.20;;;4.50;1.00;;;;;;8231114;28;20224;-69
2022/04/29 02:24:22;;;;;;;10.87;8.07;;;4.40;1.00;;;;;;8220906;28;20212;-69
2022/04/29 02:28:24;;;;;;;11.17;8.43;;;4.40;1.00;;;;;;8221290;28;20233;-69
2022/04/29 02:32:25;;;;;;;11.77;8.27;;;4.40;43.30;;;;;;8217866;28;20554;-69
2022/04/29 02:36:26;;;;;;;14.23;9.27;;;4.40;19.40;;;;;;8216466;28;20584;-69
2022/04/29 02:40:27;;;;;;;13.20;8.47;;;4.40;1.00;;;;;;8216803;28;20233;-69
2022/04/29 02:44:28;;;;;;;13.47;9.10;;;4.40;1.00;;;;;;8224547;28;20215;-69
2022/04/29 02:48:28;;;;;;;11.87;8.87;;;4.30;1.00;;;;;;8214500;28;20189;-69
2022/04/29 02:52:29;;;;;;;12.87;9.20;;;4.30;1.00;;;;;;8220640;28;20773;-68
2022/04/29 02:56:30;;;;;;;12.83;8.67;;;4.40;17.60;;;;;;8225084;28;20224;-69
2022/04/29 03:00:31;;;;;;;13.33;8.63;;;4.40;26.80;;;;;;8225420;28;20197;-69
2022/04/29 03:04:31;;;;;;;11.27;7.93;;;4.40;24.50;;;;;;8240581;28;20229;-70
2022/04/29 03:08:32;;;;;;;13.40;8.37;;;4.50;1.00;;;;;;8221986;28;20199;-69
2022/04/29 03:12:34;;;;;;;10.30;8.17;;;4.50;1.00;;;;;;8224314;28;20291;-69
2022/04/29 03:16:35;;;;;;;12.87;7.83;;;4.50;1.00;;;;;;8236905;28;20194;-68
2022/04/29 03:20:38;;;;;;;10.43;8.27;;;4.40;1.00;;;;;;8217989;28;20279;-69
2022/04/29 03:24:38;;;;;;;9.20;6.90;;;4.40;1.00;;;;;;8217261;28;20479;-69
2022/04/29 03:28:39;;;;;;;10.57;8.10;;;4.40;1.00;;;;;;8226322;28;20297;-68
2022/04/29 03:32:40;;;;;;;11.53;7.93;;;4.40;24.50;;;;;;8217761;28;20230;-69
2022/04/29 03:36:41;;;;;;;11.37;7.20;;;4.40;53.40;;;;;;8225049;28;20231;-69
2022/04/29 03:40:42;;;;;;;11.73;7.70;;;4.40;99.90;;;;;;8212392;28;20212;-68
2022/04/29 03:44:42;;;;;;;10.23;7.60;;;4.40;99.90;;;;;;8233493;28;20306;-69
2022/04/29 03:53:17;;;;;;;10.20;7.83;;;4.40;19.00;;;;;;8194807;28;20272;-69
2022/04/29 03:57:17;;;;;;;11.07;7.23;;;4.40;99.90;;;;;;8211109;28;20198;-69
2022/04/29 04:01:18;;;;;;;12.70;8.07;;;4.50;99.90;;;;;;8210223;28;20208;-69
2022/04/29 04:05:19;;;;;;;12.30;8.27;;;4.60;99.90;;;;;;8209385;28;20227;-69
2022/04/29 04:09:22;;;;;;;10.23;7.73;;;4.80;96.70;;;;;;8213944;28;20277;-69
2022/04/29 04:13:23;;;;;;;9.60;7.37;;;5.00;1.00;;;;;;8217603;28;20228;-69
2022/04/29 04:17:23;;;;;;;12.00;7.63;;;5.10;1.00;;;;;;8226456;28;20192;-69
2022/04/29 04:21:24;;;;;;;10.60;7.60;;;5.40;1.00;;;;;;8229482;28;20199;-69
2022/04/29 04:25:25;;;;;;;9.03;7.00;;;5.70;99.90;;;;;;8227118;28;20259;-69
2022/04/29 04:29:26;;;;;;;9.87;7.50;;;6.30;99.90;;;;;;8226595;28;20212;-69
2022/04/29 04:33:26;;;;;;;9.80;7.47;;;7.00;99.90;;;;;;8213303;28;20244;-70
2022/04/29 04:37:30;;;;;;;10.33;7.00;;;7.10;99.90;;;;;;8204751;28;20242;-70
2022/04/29 04:41:31;;;;;;;11.47;7.47;;;7.00;99.90;;;;;;8227239;28;20224;-70
2022/04/29 04:45:32;;;;;;;12.27;7.60;;;7.20;99.90;;;;;;8230249;28;20211;-70
2022/04/29 04:49:33;;;;;;;10.30;8.40;;;7.70;25.70;;;;;;8217357;28;20180;-70
2022/04/29 04:53:34;;;;;;;12.07;7.57;;;8.10;99.90;;;;;;8218026;28;20476;-70
2022/04/29 04:57:35;;;;;;;11.87;8.13;;;8.10;99.90;;;;;;8208173;28;20304;-70
2022/04/29 05:01:35;;;;;;;11.63;7.97;;;7.90;99.90;;;;;;8227300;28;20199;-70
2022/04/29 05:05:36;;;;;;;11.33;8.37;;;8.00;86.60;;;;;;8223375;28;20212;-70
2022/04/29 05:09:37;;;;;;;12.60;9.50;;;8.00;95.00;;;;;;8230169;28;20184;-70
2022/04/29 05:13:38;;;;;;;14.37;9.20;;;8.00;99.90;;;;;;8215479;28;20196;-71
2022/04/29 05:17:41;;;;;;;14.07;9.30;;;8.20;97.10;;;;;;8214261;28;20183;-70
2022/04/29 05:21:42;;;;;;;13.53;10.50;;;8.40;1.00;;;;;;8228028;28;20196;-71
2022/04/29 05:25:43;;;;;;;16.73;11.30;;;8.50;1.00;;;;;;8213287;28;20216;-71
2022/04/29 05:29:44;;;;;;;17.20;10.57;;;8.70;1.00;;;;;;8218438;28;20231;-70
2022/04/29 05:33:44;;;;;;;15.43;11.73;;;8.90;1.00;;;;;;8230268;28;20191;-70
2022/04/29 05:37:45;;;;;;;15.77;11.03;;;9.10;1.00;;;;;;8217761;28;20200;-70
2022/04/29 05:46:05;;;;;;;17.33;10.67;;;9.60;1.00;;;;;;8218025;28;20218;-70
2022/04/29 05:50:07;;;;;;;16.53;10.07;;;9.80;1.00;;;;;;8221142;28;20188;-69
2022/04/29 05:54:07;;;;;;;13.27;9.27;;;10.10;1.00;;;;;;8214482;28;20200;-70
2022/04/29 05:58:09;;;;;;;11.80;9.40;;;10.20;99.90;;;;;;8236818;28;20190;-70
2022/04/29 06:02:09;;;;;;;10.73;8.10;;;10.40;99.90;;;;;;8216910;28;20256;-69
2022/04/29 06:06:10;;;;;;;13.90;7.63;;;10.70;99.90;;;;;;8217380;28;20497;-69
2022/04/29 06:10:11;;;;;;;11.03;7.80;;;11.00;8.20;;;;;;8213927;28;20190;-69
2022/04/29 06:14:12;;;;;;;9.47;7.43;;;11.20;1.00;;;;;;8215120;28;20201;-70
2022/04/29 06:18:13;;;;;;;9.03;6.83;;;11.40;99.90;;;;;;8232849;28;20288;-69
2022/04/29 06:22:13;;;;;;;10.17;6.33;;;11.70;99.90;;;;;;8218115;28;20231;-68
2022/04/29 06:26:14;;;;;;;7.63;5.80;;;11.90;99.90;;;;;;8211389;28;20226;-69
2022/04/29 06:30:15;;;;;;;8.10;5.70;;;12.10;99.90;;;;;;8210699;28;20207;-68
2022/04/29 06:34:16;;;;;;;8.17;6.30;;;12.30;99.90;;;;;;8227355;28;20188;-69
2022/04/29 06:38:17;;;;;;;7.03;5.33;;;12.50;2.80;;;;;;8230718;28;20212;-69
2022/04/29 06:42:18;;;;;;;9.90;5.90;;;12.70;1.00;;;;;;8215673;28;20199;-70
2022/04/29 06:46:18;;;;;;;8.93;6.73;;;12.90;1.00;;;;;;8219031;28;20619;-69
2022/04/29 06:50:19;;;;;;;8.57;5.93;;;13.00;1.00;;;;;;8233445;28;20260;-72
2022/04/29 06:54:20;;;;;;;8.33;5.73;;;13.10;99.90;;;;;;8233279;28;20184;-70
2022/04/29 06:58:21;;;;;;;10.27;6.20;;;13.10;99.90;;;;;;8209672;28;20200;-70
2022/04/29 07:02:22;;;;;;;9.83;6.00;;;13.10;99.90;;;;;;8211772;28;20197;-70
2022/04/29 07:06:23;;;;;;;7.83;5.47;;;13.20;99.90;;;;;;8214075;28;20234;-70
2022/04/29 07:10:24;;;;;;;8.07;5.20;;;13.40;99.90;;;;;;8212486;28;20425;-70
2022/04/29 07:14:25;;;;;;;6.60;5.43;;;13.60;99.90;;;;;;8227212;28;20263;-70
2022/04/29 07:18:25;;;;;;;9.07;4.77;;;13.70;99.90;;;;;;8213834;28;20275;-69
2022/04/29 07:22:27;;;;;;;9.10;4.77;;;13.90;99.90;;;;;;8214919;28;20214;-69
2022/04/29 07:26:27;;;;;;;7.33;4.30;;;14.10;99.90;;;;;;8210269;28;20608;-68
2022/04/29 07:30:28;;;;;;;6.37;4.37;;;14.30;99.90;;;;;;8224630;28;20203;-66
2022/04/29 07:43:07;;;;;;;5.00;3.70;;;14.90;91.90;;;;;;8212659;28;20247;-67
2022/04/29 07:47:08;;;;;;;6.73;3.97;;;15.10;94.50;;;;;;8223163;28;20185;-68
2022/04/29 07:51:09;;;;;;;5.73;3.27;;;15.50;99.90;;;;;;8212255;28;20263;-68
2022/04/29 07:55:10;;;;;;;5.10;2.83;;;15.90;94.30;;;;;;8223227;28;20189;-68
2022/04/29 07:59:10;;;;;;;4.13;3.60;;;16.30;85.50;;;;;;8209773;28;20188;-68
2022/04/29 08:03:11;;;;;;;4.63;3.37;;;16.30;55.50;;;;;;8209588;28;20209;-68
2022/04/29 08:07:12;;;;;;;3.13;2.83;;;16.10;48.80;;;;;;8212168;28;20204;-68
2022/04/29 08:11:14;;;;;;;7.87;3.27;;;15.80;43.90;;;;;;8227718;28;20185;-68
2022/04/29 08:15:15;;;;;;;6.20;3.37;;;15.90;36.80;;;;;;8198324;28;20200;-69
2022/04/29 08:19:16;;;;;;;4.53;3.20;;;15.60;20.20;;;;;;8213470;28;20239;-68
2022/04/29 08:23:17;;;;;;;5.13;3.53;;;15.10;26.30;;;;;;8227289;28;20229;-68
2022/04/29 08:27:18;;;;;;;4.33;2.67;;;14.40;46.80;;;;;;8228950;28;20243;-68
2022/04/29 08:31:21;;;;;;;4.00;3.13;;;14.30;65.50;;;;;;8226330;28;20211;-68
2022/04/29 08:35:21;;;;;;;5.17;2.77;;;14.30;88.50;;;;;;8213481;28;20204;-68
2022/04/29 08:39:22;;;;;;;5.37;3.80;;;14.60;97.50;;;;;;8208989;28;20294;-68
2022/04/29 08:43:24;;;;;;;3.50;2.50;;;14.90;97.80;;;;;;8223455;28;20216;-68
2022/04/29 08:47:26;;;;;;;4.93;2.80;;;15.20;56.10;;;;;;8227487;28;20192;-68
2022/04/29 08:51:26;;;;;;;6.53;3.07;;;15.30;38.50;;;;;;8210647;28;20193;-67
2022/04/29 08:59:49;;;;;;;5.63;3.10;;;15.00;79.00;;;;;;8211965;28;20239;-71
2022/04/29 09:03:54;;;;;;;6.60;3.10;;;15.00;58.80;;;;;;8221160;28;20271;-68
2022/04/29 09:07:59;;;;;;;4.27;2.77;;;15.00;19.90;;;;;;8239304;28;20572;-68
2022/04/29 09:12:18;;;;;;;3.97;2.53;;;15.40;26.90;;;;;;8236971;28;20614;-68
2022/04/29 09:16:19;;;;;;;6.57;2.50;;;15.90;19.10;;;;;;8218483;28;20200;-69
2022/04/29 09:20:21;;;;;;;4.70;2.30;;;15.80;17.50;;;;;;8215891;28;20219;-68
2022/04/29 09:24:22;;;;;;;3.70;2.43;;;16.30;1.00;;;;;;8236442;28;20224;-68
2022/04/29 09:28:24;;;;;;;2.93;1.87;;;16.40;1.00;;;;;;8235236;28;20217;-69
2022/04/29 09:32:25;;;;;;;3.37;2.17;;;16.30;1.00;;;;;;8226758;28;20192;-68
2022/04/29 09:36:27;;;;;;;3.83;2.37;;;16.20;1.00;;;;;;8227549;28;20231;-68
2022/04/29 09:40:38;;;;;;;4.43;2.50;;;16.20;1.00;;;;;;8229534;28;20213;-67
2022/04/29 09:44:39;;;;;;;5.03;2.10;;;15.80;1.00;;;;;;8218463;28;20263;-68
2022/04/29 09:49:09;;;;;;;5.37;2.10;;;15.60;1.00;;;;;;8231952;28;20184;-68
2022/04/29 09:53:36;;;;;;;4.20;2.10;;;15.70;1.00;;;;;;8234776;28;20192;-68
2022/04/29 09:57:56;;;;;;;4.30;2.37;;;16.60;1.00;;;;;;8217814;28;20461;-68
2022/04/29 10:01:58;;;;;;;5.07;2.13;;;16.70;1.00;;;;;;8209361;28;20188;-68
2022/04/29 10:06:01;;;;;;;4.30;1.93;;;16.10;1.00;;;;;;8216997;28;20271;-67
2022/04/29 10:10:04;;;;;;;3.97;2.67;;;16.10;1.00;;;;;;8217892;28;20214;-68
2022/04/29 10:14:07;;;;;;;4.90;2.40;;;16.40;1.00;;;;;;8217600;28;20197;-68
2022/04/29 10:22:32;;;;;;;3.67;2.27;;;17.00;1.00;;;;;;8209650;28;20261;-67
2022/04/29 10:26:33;;;;;;;4.83;2.43;;;17.10;1.00;;;;;;8210951;28;20485;-67
2022/04/29 10:30:36;;;;;;;2.87;2.10;;;17.40;1.00;;;;;;8228356;28;20203;-68
2022/04/29 10:34:37;;;;;;;4.40;2.27;;;17.50;1.00;;;;;;8228589;28;20220;-68
2022/04/29 10:38:46;;;;;;;4.17;2.70;;;17.60;1.00;;;;;;8219755;28;20287;-67
2022/04/29 10:43:07;;;;;;;4.00;1.93;;;17.20;1.00;;;;;;8217047;28;20444;-68
2022/04/29 10:47:31;;;;;;;6.53;2.70;;;17.00;1.00;;;;;;8214135;28;20193;-69
2022/04/29 10:51:32;;;;;;;7.57;2.00;;;16.70;1.00;;;;;;8214935;28;20192;-69
2022/04/29 10:55:33;;;;;;;4.03;2.07;;;16.60;1.00;;;;;;8216789;28;20189;-68
2022/04/29 11:00:00;;;;;;;4.50;1.80;;;17.10;1.00;;;;;;8220434;28;20196;-69
2022/04/29 11:04:05;;;;;;;3.47;1.60;;;17.20;1.00;;;;;;8233806;28;20200;-69
2022/04/29 11:08:11;;;;;;;1.83;1.33;;;17.00;1.00;;;;;;8235175;28;20185;-69
2022/04/29 11:12:33;;;;;;;2.37;1.70;;;17.40;1.00;;;;;;8233778;28;20192;-69
2022/04/29 11:16:55;;;;;;;2.67;1.93;;;17.70;1.00;;;;;;8240409;28;20267;-68
2022/04/29 11:20:59;;;;;;;5.83;2.17;;;17.90;1.00;;;;;;8216421;28;20195;-68
2022/04/29 11:25:00;;;;;;;2.67;1.77;;;17.60;1.00;;;;;;8216177;28;20231;-69
2022/04/29 11:29:01;;;;;;;3.43;1.37;;;17.50;1.00;;;;;;8217809;28;20197;-66
2022/04/29 11:33:02;;;;;;;3.33;1.87;;;17.50;1.00;;;;;;8235422;28;20177;-69
2022/04/29 11:37:04;;;;;;;2.53;1.77;;;17.00;1.00;;;;;;8222275;28;20188;-68
2022/04/29 11:41:05;;;;;;;7.53;1.60;;;17.40;1.00;;;;;;8218221;28;20205;-68
2022/04/29 11:45:07;;;;;;;3.00;1.37;;;17.70;1.00;;;;;;8220764;28;20295;-68
2022/04/29 11:49:08;;;;;;;1.87;1.10;;;17.70;1.00;;;;;;8221375;28;20219;-68
2022/04/29 11:53:12;;;;;;;3.83;2.13;;;17.50;1.00;;;;;;8232457;28;20181;-68
2022/04/29 11:57:15;;;;;;;2.23;1.60;;;17.80;1.00;;;;;;8236582;28;20185;-69
2022/04/29 12:01:19;;;;;;;2.77;1.07;;;18.00;1.00;;;;;;8238256;28;20189;-69
2022/04/29 12:05:26;;;;;;;3.13;1.20;;;17.70;1.00;;;;;;8220857;28;20211;-68
2022/04/29 12:09:32;;;;;;;3.50;1.17;;;17.90;1.00;;;;;;8229021;28;20189;-68
2022/04/29 12:13:34;;;;;;;1.60;1.13;;;17.90;1.00;;;;;;8227381;28;20323;-69
2022/04/29 12:17:37;;;;;;;3.53;1.43;;;17.90;1.00;;;;;;8235888;28;20200;-67
2022/04/29 12:21:37;;;;;;;2.03;1.43;;;17.80;1.00;;;;;;8228808;28;20192;-69
2022/04/29 12:25:47;;;;;;;3.50;1.33;;;17.40;1.00;;;;;;8216846;28;20640;-68
2022/04/29 12:34:48;;;;;;;3.43;1.13;;;17.60;1.00;;;;;;8214112;28;20200;-70
2022/04/29 12:38:38;;;;;;;2.67;1.40;;;17.30;1.00;;;;;;8225292;28;20318;-69
2022/04/29 12:42:39;;;;;;;46.07;42.10;;;17.30;1.00;;;;;;8210207;28;20184;-68
2022/04/29 12:46:40;;;;;;;5.77;2.50;;;17.80;1.00;;;;;;8207453;28;20243;-68
2022/04/29 12:50:43;;;;;;;2.60;1.40;;;18.30;1.00;;;;;;8211866;28;20189;-68
2022/04/29 12:54:44;;;;;;;2.93;2.00;;;18.60;1.00;;;;;;8213108;28;20195;-67
2022/04/29 12:58:45;;;;;;;2.07;1.40;;;18.80;1.00;;;;;;8209822;28;20195;-68
2022/04/29 13:02:46;;;;;;;1.50;1.10;;;19.00;1.00;;;;;;8217898;28;20513;-68
2022/04/29 13:06:47;;;;;;;4.60;1.43;;;19.00;1.00;;;;;;8231674;28;20270;-69
2022/04/29 13:10:53;;;;;;;3.57;1.90;;;19.10;1.00;;;;;;8217466;28;20185;-66
2022/04/29 13:14:54;;;;;;;11.97;4.37;;;19.20;1.00;;;;;;8219029;28;20195;-67
2022/04/29 13:18:55;;;;;;;2.93;1.60;;;19.30;1.00;;;;;;8211274;28;20181;-67
2022/04/29 13:22:56;;;;;;;2.20;1.10;;;19.30;1.00;;;;;;8237109;28;20207;-68
2022/04/29 13:26:57;;;;;;;4.13;1.40;;;19.20;1.00;;;;;;8217644;28;20212;-68
2022/04/29 13:31:02;;;;;;;2.50;0.93;;;18.90;1.00;;;;;;8216038;28;20197;-67
2022/04/29 13:35:03;;;;;;;3.90;1.10;;;18.80;1.00;;;;;;8217483;28;20189;-67
2022/04/29 13:39:04;;;;;;;1.47;1.03;;;18.60;1.00;;;;;;8216674;28;20212;-68
2022/04/29 13:43:05;;;;;;;1.30;0.90;;;18.40;1.00;;;;;;8210687;28;20197;-68
2022/04/29 13:47:07;;;;;;;1.07;0.90;;;18.50;1.00;;;;;;8231461;28;20204;-68
2022/04/29 13:51:07;;;;;;;3.63;1.73;;;18.70;1.00;;;;;;8216369;28;20183;-67
2022/04/29 13:55:08;;;;;;;7.73;3.97;;;18.80;1.00;;;;;;8224410;28;20188;-66
2022/04/29 13:59:09;;;;;;;4.80;2.90;;;19.00;1.00;;;;;;8218228;28;20263;-67
2022/04/29 14:03:11;;;;;;;2.03;1.40;;;18.80;1.00;;;;;;8231316;28;20184;-68
2022/04/29 14:07:14;;;;;;;4.60;1.27;;;18.90;1.00;;;;;;8234013;28;20184;-68
2022/04/29 14:11:14;;;;;;;5.50;2.57;;;19.10;1.00;;;;;;8232692;28;20439;-68
2022/04/29 14:15:15;;;;;;;1.63;1.10;;;18.90;1.00;;;;;;8217846;28;20204;-67
2022/04/29 14:19:16;;;;;;;2.60;1.30;;;18.70;1.00;;;;;;8220245;28;20216;-65
2022/04/29 14:23:17;;;;;;;10.57;3.93;;;18.60;1.00;;;;;;8219879;28;20185;-67
2022/04/29 14:27:20;;;;;;;2.60;1.47;;;18.80;1.00;;;;;;8234540;28;20189;-66
2022/04/29 14:31:22;;;;;;;3.07;1.10;;;18.90;1.00;;;;;;8216045;28;20205;-68
2022/04/29 14:35:23;;;;;;;1.63;1.33;;;18.90;1.00;;;;;;8223540;28;20253;-67
2022/04/29 14:39:24;;;;;;;15.03;8.80;;;18.90;1.00;;;;;;8234961;28;20248;-68
2022/04/29 14:43:25;;;;;;;2.40;1.00;;;19.00;1.00;;;;;;8216236;28;20200;-67
2022/04/29 14:47:26;;;;;;;2.03;0.90;;;18.80;1.00;;;;;;8220404;28;20192;-67
2022/04/29 14:51:27;;;;;;;3.37;1.33;;;18.60;1.00;;;;;;8216791;28;20235;-67
2022/04/29 14:55:28;;;;;;;2.77;1.10;;;18.60;1.00;;;;;;8217272;28;20200;-67
2022/04/29 14:59:29;;;;;;;12.73;4.83;;;18.60;1.00;;;;;;8214395;28;20443;-67
2022/04/29 15:03:30;;;;;;;17.10;5.37;;;18.60;1.00;;;;;;8218670;28;20204;-67
2022/04/29 15:07:30;;;;;;;2.43;1.50;;;18.70;1.00;;;;;;8220698;28;20195;-68
2022/04/29 15:15:50;;;;;;;1.60;0.60;;;18.80;1.00;;;;;;8222796;28;20243;-67
2022/04/29 15:19:53;;;;;;;3.10;1.30;;;18.60;1.00;;;;;;8216913;28;20187;-67
2022/04/29 15:23:54;;;;;;;2.50;0.80;;;18.60;1.00;;;;;;8214271;28;20350;-65
2022/04/29 15:27:55;;;;;;;3.87;1.90;;;18.60;1.00;;;;;;8215941;28;20203;-66
2022/04/29 15:31:56;;;;;;;1.97;1.63;;;18.70;1.00;;;;;;8231123;28;20543;-66
2022/04/29 15:35:57;;;;;;;2.10;1.00;;;18.80;1.00;;;;;;8213624;28;20181;-67
2022/04/29 15:39:58;;;;;;;3.63;1.23;;;18.80;1.00;;;;;;8224978;28;20211;-66
2022/04/29 15:43:59;;;;;;;0.77;0.50;;;18.90;1.00;;;;;;8212194;28;20331;-67
2022/04/29 15:48:00;;;;;;;2.67;0.60;;;18.80;1.00;;;;;;8215283;28;20184;-67
2022/04/29 15:52:01;;;;;;;1.57;0.70;;;18.50;1.00;;;;;;8214987;28;20199;-66
2022/04/29 15:56:03;;;;;;;2.37;1.20;;;18.50;1.00;;;;;;8212911;28;20189;-66
2022/04/29 16:00:05;;;;;;;2.90;1.60;;;18.50;1.00;;;;;;8217063;28;20245;-66
2022/04/29 16:04:05;;;;;;;7.37;3.87;;;18.50;1.00;;;;;;8229756;28;20208;-67
2022/04/29 16:08:06;;;;;;;8.90;4.03;;;18.40;1.00;;;;;;8233937;28;20218;-69
2022/04/29 16:12:09;;;;;;;3.03;1.50;;;18.30;1.00;;;;;;8204094;28;20247;-66
2022/04/29 16:16:11;;;;;;;1.57;1.10;;;18.20;1.00;;;;;;8216754;28;20189;-65
2022/04/29 16:28:50;;;;;;;3.57;2.10;;;17.80;1.00;;;;;;8219572;28;20208;-67
2022/04/29 16:32:51;;;;;;;3.87;2.60;;;17.70;1.00;;;;;;8214566;28;20192;-66
2022/04/29 16:36:55;;;;;;;17.67;11.10;;;17.60;1.00;;;;;;8216413;28;20584;-67
2022/04/29 16:40:56;;;;;;;6.10;2.97;;;17.50;1.00;;;;;;8215045;28;20561;-67
2022/04/29 16:44:59;;;;;;;15.00;5.97;;;17.50;1.00;;;;;;8208849;28;20212;-66
2022/04/29 16:49:00;;;;;;;13.17;6.50;;;17.40;1.00;;;;;;8218380;28;20180;-67
2022/04/29 16:53:02;;;;;;;28.93;16.10;;;17.20;1.00;;;;;;8234022;28;20235;-67
2022/04/29 17:01:24;;;;;;;40.63;26.07;;;16.90;1.00;;;;;;8213386;28;20294;-67
2022/04/29 17:05:25;;;;;;;28.63;12.70;;;16.80;1.00;;;;;;8229575;28;20291;-67
2022/04/29 17:09:26;;;;;;;21.77;12.30;;;16.70;1.00;;;;;;8229144;28;20184;-67
2022/04/29 17:13:28;;;;;;;12.37;5.93;;;16.70;1.00;;;;;;8214527;28;20470;-67
2022/04/29 17:17:29;;;;;;;15.93;10.00;;;16.50;1.00;;;;;;8212575;28;20189;-67
2022/04/29 17:21:30;;;;;;;28.20;14.47;;;16.40;1.00;;;;;;8214778;28;20511;-67
2022/04/29 17:25:32;;;;;;;30.47;14.00;;;16.30;1.00;;;;;;8236197;28;20219;-67
2022/04/29 17:29:32;;;;;;;31.07;15.40;;;16.20;1.00;;;;;;8220090;28;20424;-68
2022/04/29 17:33:35;;;;;;;21.57;11.10;;;16.10;1.00;;;;;;8221811;28;20268;-70
2022/04/29 17:37:36;;;;;;;21.23;7.23;;;16.10;1.00;;;;;;8219419;28;20187;-67
2022/04/29 17:45:56;;;;;;;39.00;21.60;;;16.20;1.00;;;;;;8221291;28;20291;-67
2022/04/29 17:50:15;;;;;;;58.80;29.73;;;16.20;1.00;;;;;;8222519;28;20560;-68
2022/04/29 17:54:16;;;;;;;39.60;21.83;;;16.00;1.00;;;;;;8222042;28;20196;-70
2022/04/29 17:58:17;;;;;;;28.20;15.37;;;15.60;1.00;;;;;;8235363;28;20204;-68
2022/04/29 18:02:18;;;;;;;12.07;7.43;;;15.10;1.00;;;;;;8235647;28;20193;-67
2022/04/29 18:06:19;;;;;;;7.67;4.50;;;14.60;1.00;;;;;;8215522;28;20306;-68
2022/04/29 18:10:20;;;;;;;5.93;3.90;;;14.10;1.00;;;;;;8217989;28;20276;-68
2022/04/29 18:14:21;;;;;;;4.80;3.37;;;13.60;10.40;;;;;;8236595;28;20235;-68
2022/04/29 18:18:23;;;;;;;3.27;2.30;;;13.10;49.20;;;;;;8226100;28;20194;-68
2022/04/29 18:22:26;;;;;;;3.57;2.07;;;12.70;98.60;;;;;;8217163;28;20283;-68
2022/04/29 18:26:26;;;;;;;1.80;1.50;;;12.20;99.90;;;;;;8232519;28;20218;-68
2022/04/29 18:30:27;;;;;;;2.13;1.20;;;11.80;99.90;;;;;;8217215;28;20231;-69
2022/04/29 18:34:28;;;;;;;2.33;1.30;;;11.40;99.90;;;;;;8236289;28;20199;-68
2022/04/29 18:38:29;;;;;;;1.30;0.97;;;11.20;99.90;;;;;;8236408;28;20209;-68
2022/04/29 18:42:30;;;;;;;2.07;1.10;;;10.90;99.90;;;;;;8227286;28;20187;-68
2022/04/29 18:46:31;;;;;;;2.10;0.93;;;10.60;99.90;;;;;;8233144;28;20217;-69
2022/04/29 18:50:33;;;;;;;3.53;2.97;;;10.40;99.90;;;;;;8236243;28;20188;-67
2022/04/29 18:54:35;;;;;;;1.93;1.73;;;10.20;1.00;;;;;;8221704;28;20188;-68
2022/04/29 18:58:36;;;;;;;2.57;1.40;;;10.00;1.00;;;;;;8231291;28;20251;-68
2022/04/29 19:02:37;;;;;;;1.87;1.47;;;9.80;99.90;;;;;;8230992;28;20275;-68
2022/04/29 19:06:38;;;;;;;2.90;1.80;;;9.60;99.90;;;;;;8226660;28;20235;-68
2022/04/29 19:10:39;;;;;;;3.93;2.20;;;9.50;99.90;;;;;;8215009;28;20271;-68
2022/04/29 19:14:40;;;;;;;3.07;2.17;;;9.30;1.00;;;;;;8216826;28;20200;-67
2022/04/29 19:18:41;;;;;;;2.43;1.93;;;9.10;1.00;;;;;;8208711;28;20185;-69
2022/04/29 19:22:42;;;;;;;1.73;1.50;;;8.90;1.00;;;;;;8216131;28;20188;-67
2022/04/29 19:26:44;;;;;;;1.40;1.10;;;8.70;1.00;;;;;;8218242;28;20216;-69
2022/04/29 19:30:45;;;;;;;2.67;1.70;;;8.60;1.00;;;;;;8232047;28;20343;-68
2022/04/29 19:34:47;;;;;;;5.27;3.10;;;8.40;15.40;;;;;;8216005;28;20236;-68
2022/04/29 19:38:49;;;;;;;5.43;3.87;;;8.40;1.00;;;;;;8229886;28;20209;-67
2022/04/29 19:42:51;;;;;;;6.00;3.50;;;8.30;1.00;;;;;;8209301;28;20200;-67
2022/04/29 19:46:51;;;;;;;2.80;2.40;;;8.30;1.00;;;;;;8215357;28;20212;-66
2022/04/29 19:50:52;;;;;;;3.00;2.00;;;8.20;1.00;;;;;;8212641;28;20181;-68
2022/04/29 19:54:53;;;;;;;2.40;1.80;;;8.10;1.00;;;;;;8219046;28;20191;-67
2022/04/29 19:59:12;;;;;;;2.67;1.83;;;8.00;11.80;;;;;;8216869;28;20199;-68
2022/04/29 20:07:32;;;;;;;1.93;1.30;;;7.80;99.90;;;;;;8217249;28;20207;-68
2022/04/29 20:11:34;;;;;;;2.30;1.50;;;7.60;99.90;;;;;;8225150;28;20188;-68
2022/04/29 20:15:35;;;;;;;2.57;1.53;;;7.50;99.90;;;;;;8208542;28;20197;-68
2022/04/29 20:19:36;;;;;;;3.03;1.77;;;7.40;99.90;;;;;;8214658;28;20192;-66
2022/04/29 20:23:37;;;;;;;4.80;2.70;;;7.30;99.90;;;;;;8226743;28;20192;-67
2022/04/29 20:27:38;;;;;;;3.43;2.23;;;7.20;99.90;;;;;;8212247;28;20499;-67
2022/04/29 20:31:39;;;;;;;3.17;2.10;;;7.00;99.90;;;;;;8213644;28;20189;-68
2022/04/29 20:35:41;;;;;;;2.77;2.00;;;6.90;99.90;;;;;;8213422;28;20188;-68
2022/04/29 20:44:01;;;;;;;24.43;8.87;;;6.70;99.90;;;;;;8214479;28;20218;-68
2022/04/29 20:48:02;;;;;;;35.70;12.40;;;6.60;99.90;;;;;;8228173;28;20231;-68
2022/04/29 20:52:03;;;;;;;20.27;8.63;;;6.50;1.00;;;;;;8231108;28;20189;-68
2022/04/29 20:56:04;;;;;;;13.73;5.40;;;6.40;1.00;;;;;;8217587;28;20284;-68
2022/04/29 21:00:05;;;;;;;9.87;4.40;;;6.30;1.00;;;;;;8223197;28;20192;-67
2022/04/29 21:04:07;;;;;;;6.07;3.37;;;6.10;1.00;;;;;;8218393;28;20205;-67
2022/04/29 21:08:08;;;;;;;3.63;2.47;;;6.00;41.10;;;;;;8221957;28;20212;-68
2022/04/29 21:12:09;;;;;;;3.63;1.90;;;5.90;97.20;;;;;;8220489;28;20177;-67
2022/04/29 21:16:10;;;;;;;4.70;2.20;;;5.80;99.90;;;;;;8217934;28;20196;-67
2022/04/29 21:20:11;;;;;;;3.70;2.63;;;5.70;99.90;;;;;;8234533;28;20196;-68
2022/04/29 21:24:13;;;;;;;4.83;2.60;;;5.60;99.90;;;;;;8219991;28;20220;-68
2022/04/29 21:28:16;;;;;;;5.60;3.07;;;5.60;99.90;;;;;;8223364;28;20342;-68
2022/04/29 21:32:17;;;;;;;7.00;3.77;;;5.50;99.90;;;;;;8232868;28;20197;-68
2022/04/29 21:36:19;;;;;;;4.73;2.80;;;5.50;99.90;;;;;;8219541;28;20180;-68
2022/04/29 21:40:21;;;;;;;28.50;10.27;;;5.40;99.90;;;;;;8235121;28;20268;-68
2022/04/29 21:44:22;;;;;;;27.77;9.63;;;5.40;99.90;;;;;;8221821;28;20208;-67
2022/04/29 21:48:23;;;;;;;19.77;8.20;;;5.40;99.90;;;;;;8225265;28;20196;-68
2022/04/29 21:52:24;;;;;;;12.50;5.80;;;5.40;99.90;;;;;;8225170;28;20271;-68
2022/04/29 21:56:25;;;;;;;13.23;5.63;;;5.40;99.90;;;;;;8222741;28;20304;-68
2022/04/29 22:00:35;;;;;;;9.80;5.27;;;5.30;99.90;;;;;;8237482;28;20199;-68
2022/04/29 22:04:36;;;;;;;7.30;4.47;;;5.20;99.90;;;;;;8218250;28;20212;-68
2022/04/29 22:08:37;;;;;;;6.90;4.07;;;5.10;1.00;;;;;;8217008;28;20376;-68
2022/04/29 22:12:38;;;;;;;11.47;5.10;;;5.10;1.00;;;;;;8218443;28;20191;-68